Ashley, Ohio
Current Conditions -  °F | °C
As of 11:57 PM on Saturday 25 Oct 2014 (Local Time) from KDLZ Reporting Station
Clear Clear  
Wind Chill: 10°   Ceiling: Unl
Heat Index: 10°   Visibility: 10mi
Dew Point:   Wind: 7mph
Humidity: 71%   Direction: 290°WNW
Pressure: 29.89"   Gusts: NA
Location:  40.41°N, 82.96°W
Report Text: KDLZ 260357Z AUTO 29006KT 10SM CLR 10/05 A2989 RMK AO2
Loading
Personal Weather Stations






























Interactive Weather Map
Tropical Storm Tracking
New forecast layout! Learn more

10-Day Weather Forecast

Advertisements
Track Severe Weather on mobile